Time;durP1;ratioP1;P1;durP2;ratioP2;P2;SDS_P1;SDS_P2;PMS_P1;PMS_P2;Temp;Humidity;BMP_temperature;BMP_pressure;BME280_temperature;BME280_humidity;BME280_pressure;Samples;Min_cycle;Max_cycle;Signal;HPM_P1;HPM_P2
2024/04/14 09:24:57;;;;;;;;;;;;;;;19.76;48.95;98418.41;5520882;25;19927;-62
2024/04/14 09:27:44;;;;;;;;;;;;;;;19.79;48.63;98423.19;5513289;25;19932;-61
2024/04/14 09:30:34;;;;;;;;;;;;;;;19.81;48.18;98426.38;5501503;25;19934;-61
2024/04/14 09:33:22;;;;;;;;;;;;;;;20.04;47.83;98423.75;5511659;25;20330;-61
2024/04/14 09:36:12;;;;;;;;;;;;;;;20.16;47.44;98423.63;5500282;25;19932;-60
2024/04/14 09:38:59;;;;;;;;;;;;;;;20.22;47.33;98427.69;5515461;25;19940;-60
2024/04/14 09:41:51;;;;;;;;;;;;;;;20.25;47.30;98418.69;5517397;25;19939;-61
2024/04/14 09:44:39;;;;;;;;;;;;;;;20.24;47.03;98417.09;5515077;25;19928;-60
2024/04/14 09:47:28;;;;;;;;;;;;;;;20.26;46.90;98408.44;5525927;25;20273;-61
2024/04/14 09:50:16;;;;;;;;;;;;;;;20.33;47.31;98414.91;5529488;25;19927;-61
2024/04/14 09:53:08;;;;;;;;;;;;;;;20.35;46.27;98409.03;5519110;25;19927;-61
2024/04/14 09:55:58;;;;;;;;;;;;;;;20.45;45.88;98413.16;5540430;25;19928;-61
2024/04/14 09:58:50;;;;;;;;;;;;;;;20.47;45.59;98414.44;5496836;25;20308;-60
2024/04/14 10:01:38;;;;;;;;;;;;;;;20.50;45.45;98407.38;5516374;25;19927;-60
2024/04/14 10:04:28;;;;;;;;;;;;;;;20.57;45.39;98413.03;5521313;25;20704;-60
2024/04/14 10:07:15;;;;;;;;;;;;;;;20.62;45.06;98407.22;5507122;25;20020;-60
2024/04/14 10:10:08;;;;;;;;;;;;;;;20.73;44.71;98397.19;5522858;25;19964;-60
2024/04/14 10:12:56;;;;;;;;;;;;;;;20.74;45.39;98398.78;5501257;25;19934;-60
2024/04/14 10:15:56;;;;;;;;;;;;;;;20.81;44.75;98392.56;5514649;25;19935;-61
2024/04/14 10:18:47;;;;;;;;;;;;;;;20.91;44.93;98395.53;5537559;25;19931;-60
2024/04/14 10:21:34;;;;;;;;;;;;;;;20.93;44.87;98397.91;5502015;25;20273;-60
2024/04/14 10:24:25;;;;;;;;;;;;;;;20.92;44.48;98388.81;5525800;25;19995;-60
2024/04/14 10:27:12;;;;;;;;;;;;;;;21.09;44.16;98386.72;5533730;25;19927;-61
2024/04/14 10:30:02;;;;;;;;;;;;;;;21.06;43.94;98390.25;5532230;25;19931;-60
2024/04/14 10:33:02;;;;;;;;;;;;;;;21.09;43.70;98383.97;5520674;25;19932;-60
2024/04/14 10:36:01;;;;;;;;;;;;;;;21.18;42.94;98393.59;5523755;25;19956;-61
2024/04/14 10:38:50;;;;;;;;;;;;;;;20.99;43.70;98385.41;5487254;26;19976;-61
2024/04/14 10:41:39;;;;;;;;;;;;;;;21.15;43.80;98404.63;5507033;26;19928;-61
2024/04/14 10:44:26;;;;;;;;;;;;;;;21.15;43.40;98393.56;5502789;25;19961;-61
2024/04/14 10:47:17;;;;;;;;;;;;;;;21.07;43.90;98398.16;5501257;25;19956;-61
2024/04/14 10:50:07;;;;;;;;;;;;;;;21.07;44.29;98378.03;5507520;26;20361;-61
2024/04/14 10:52:57;;;;;;;;;;;;;;;21.12;44.10;98386.00;5501730;26;19936;-60
2024/04/14 10:55:45;;;;;;;;;;;;;;;21.27;44.39;98385.06;5493991;26;20019;-60
2024/04/14 10:58:35;;;;;;;;;;;;;;;21.12;44.86;98377.72;5495004;26;19939;-61
2024/04/14 11:01:23;;;;;;;;;;;;;;;21.17;44.81;98380.16;5509869;26;20357;-60
2024/04/14 11:04:16;;;;;;;;;;;;;;;21.04;44.68;98367.69;5501940;26;19932;-61
2024/04/14 11:07:06;;;;;;;;;;;;;;;21.20;45.18;98368.38;5507757;26;20445;-61
2024/04/14 11:09:57;;;;;;;;;;;;;;;21.32;45.23;98359.13;5501367;26;19927;-60
2024/04/14 11:12:44;;;;;;;;;;;;;;;21.29;45.25;98366.16;5510774;26;19934;-59
2024/04/14 11:15:34;;;;;;;;;;;;;;;21.34;45.17;98349.28;5510405;26;19935;-59
2024/04/14 11:18:24;;;;;;;;;;;;;;;21.40;45.07;98366.34;5504434;25;19934;-59
2024/04/14 11:21:18;;;;;;;;;;;;;;;21.41;45.10;98356.88;5503025;26;19928;-60
2024/04/14 11:24:10;;;;;;;;;;;;;;;21.36;45.64;98348.91;5507407;25;20268;-59
2024/04/14 11:27:02;;;;;;;;;;;;;;;21.42;45.21;98359.28;5509636;26;19927;-60
2024/04/14 11:29:50;;;;;;;;;;;;;;;21.36;44.86;98354.44;5507633;26;19992;-60
2024/04/14 11:32:39;;;;;;;;;;;;;;;21.42;44.67;98351.00;5508325;26;20409;-60
2024/04/14 11:35:27;;;;;;;;;;;;;;;21.52;45.21;98341.25;5510854;26;19951;-60
2024/04/14 11:38:18;;;;;;;;;;;;;;;21.55;44.22;98343.28;5520538;26;20495;-60
2024/04/14 11:41:08;;;;;;;;;;;;;;;21.57;44.99;98342.88;5493865;26;19928;-60
2024/04/14 11:43:58;;;;;;;;;;;;;;;21.48;44.56;98339.63;5500724;26;19939;-60
2024/04/14 11:46:47;;;;;;;;;;;;;;;21.50;45.37;98337.25;5500981;26;19939;-61
2024/04/14 11:49:35;;;;;;;;;;;;;;;21.50;45.25;98337.25;5508267;26;19939;-63
2024/04/14 11:52:25;;;;;;;;;;;;;;;21.55;45.31;98323.91;5501051;26;19998;-59
2024/04/14 11:55:12;;;;;;;;;;;;;;;21.55;45.56;98328.66;5499639;25;19928;-59
2024/04/14 11:58:05;;;;;;;;;;;;;;;21.52;45.38;98324.69;5502991;25;19927;-61
2024/04/14 12:00:52;;;;;;;;;;;;;;;21.49;45.60;98336.47;5514291;26;20346;-60
2024/04/14 12:03:42;;;;;;;;;;;;;;;21.56;45.84;98327.47;5496555;26;19931;-60
2024/04/14 12:06:32;;;;;;;;;;;;;;;21.54;45.32;98343.66;5516539;26;19956;-61
2024/04/14 12:09:22;;;;;;;;;;;;;;;21.59;45.67;98330.31;5500437;25;19931;-58
2024/04/14 12:12:09;;;;;;;;;;;;;;;21.56;46.23;98336.56;5494177;26;19927;-60
2024/04/14 12:15:03;;;;;;;;;;;;;;;21.53;46.03;98347.59;5517596;25;19943;-61
2024/04/14 12:17:52;;;;;;;;;;;;;;;21.46;46.41;98334.44;5494627;26;20322;-60
2024/04/14 12:20:43;;;;;;;;;;;;;;;21.35;45.96;98331.53;5494416;26;20254;-59
2024/04/14 12:23:30;;;;;;;;;;;;;;;21.22;46.50;98324.59;5512150;26;19928;-60
2024/04/14 12:26:20;;;;;;;;;;;;;;;21.31;45.61;98327.94;5507798;26;19931;-65
2024/04/14 12:29:09;;;;;;;;;;;;;;;21.21;45.56;98320.25;5472125;26;19939;-61
2024/04/14 12:32:01;;;;;;;;;;;;;;;21.26;45.08;98319.94;5499852;26;19935;-60
2024/04/14 12:34:51;;;;;;;;;;;;;;;21.23;45.71;98317.09;5503234;25;19991;-60
2024/04/14 12:37:41;;;;;;;;;;;;;;;21.38;45.16;98319.72;5508268;26;19939;-60
2024/04/14 12:40:28;;;;;;;;;;;;;;;21.43;45.44;98324.16;5492346;25;19928;-60
2024/04/14 12:43:18;;;;;;;;;;;;;;;21.51;45.98;98316.75;5493746;26;19940;-60
2024/04/14 12:46:05;;;;;;;;;;;;;;;21.47;45.66;98313.16;5496222;26;20064;-61
2024/04/14 12:48:58;;;;;;;;;;;;;;;21.44;46.15;98304.41;5488803;26;19936;-60
2024/04/14 12:51:45;;;;;;;;;;;;;;;21.44;46.31;98301.66;5485330;26;19935;-61
2024/04/14 12:54:35;;;;;;;;;;;;;;;21.42;45.91;98297.69;5491285;26;20376;-60
2024/04/14 12:57:25;;;;;;;;;;;;;;;21.40;45.77;98300.81;5516845;26;20309;-60
2024/04/14 13:00:12;;;;;;;;;;;;;;;21.37;45.83;98293.28;5520214;26;19955;-60
2024/04/14 13:03:02;;;;;;;;;;;;;;;21.37;44.89;98290.50;5520128;26;19962;-61
2024/04/14 13:05:52;;;;;;;;;;;;;;;21.48;45.26;98282.38;5471940;26;20267;-60
2024/04/14 13:08:41;;;;;;;;;;;;;;;21.49;45.15;98280.41;5512642;25;19927;-60
2024/04/14 13:11:29;;;;;;;;;;;;;;;21.54;45.37;98269.00;5513016;26;19942;-60
2024/04/14 13:14:18;;;;;;;;;;;;;;;21.59;45.27;98275.00;5499377;26;19927;-61
2024/04/14 13:17:06;;;;;;;;;;;;;;;21.72;45.44;98267.25;5473648;26;19932;-61
2024/04/14 13:19:55;;;;;;;;;;;;;;;21.84;44.08;98269.78;5506398;26;20375;-60
2024/04/14 13:22:45;;;;;;;;;;;;;;;21.73;43.04;98270.81;5495985;26;19939;-59
2024/04/14 13:25:36;;;;;;;;;;;;;;;21.71;44.13;98265.66;5509141;26;20257;-61
2024/04/14 13:28:23;;;;;;;;;;;;;;;21.82;43.36;98263.81;5510496;26;19927;-60
2024/04/14 13:31:13;;;;;;;;;;;;;;;21.82;43.54;98260.25;5507110;25;19939;-58
2024/04/14 13:34:04;;;;;;;;;;;;;;;21.81;42.80;98255.91;5497146;25;20251;-59
2024/04/14 13:36:53;;;;;;;;;;;;;;;21.88;43.35;98248.47;5481426;26;19979;-60
2024/04/14 13:39:47;;;;;;;;;;;;;;;21.90;42.70;98243.38;5500606;26;19950;-60
2024/04/14 13:42:34;;;;;;;;;;;;;;;21.94;42.65;98241.47;5500408;26;19977;-58
2024/04/14 13:45:24;;;;;;;;;;;;;;;21.97;42.31;98235.16;5490364;25;19928;-60
2024/04/14 13:48:14;;;;;;;;;;;;;;;21.92;42.36;98235.50;5511578;26;19935;-60
2024/04/14 13:51:01;;;;;;;;;;;;;;;22.03;41.99;98241.13;5508753;25;19996;-60
2024/04/14 13:53:53;;;;;;;;;;;;;;;22.03;42.23;98223.75;5502593;26;19927;-61
2024/04/14 13:56:45;;;;;;;;;;;;;;;22.04;42.05;98222.56;5498222;25;20594;-60
2024/04/14 13:59:34;;;;;;;;;;;;;;;22.12;42.00;98218.75;5494451;25;20331;-59
2024/04/14 14:02:23;;;;;;;;;;;;;;;22.11;42.64;98222.69;5508773;25;19995;-59
2024/04/14 14:05:10;;;;;;;;;;;;;;;22.22;41.49;98218.03;5500702;26;20558;-60
2024/04/14 14:08:01;;;;;;;;;;;;;;;22.10;41.60;98210.78;5509915;26;20379;-61
2024/04/14 14:10:48;;;;;;;;;;;;;;;22.08;40.80;98206.81;5499018;25;20033;-60
2024/04/14 14:13:41;;;;;;;;;;;;;;;22.16;41.21;98202.97;5488393;25;19939;-60
2024/04/14 14:16:31;;;;;;;;;;;;;;;22.15;41.79;98195.81;5509646;26;19927;-61
2024/04/14 14:19:21;;;;;;;;;;;;;;;22.03;41.96;98187.78;5503738;25;19933;-62
2024/04/14 14:22:12;;;;;;;;;;;;;;;21.97;41.90;98190.09;5498347;26;19927;-60
2024/04/14 14:25:02;;;;;;;;;;;;;;;21.98;42.10;98172.31;5500072;25;19941;-60
2024/04/14 14:27:49;;;;;;;;;;;;;;;21.99;42.46;98171.13;5486854;26;20006;-60
2024/04/14 14:30:41;;;;;;;;;;;;;;;22.02;41.83;98175.91;5502382;26;19940;-61
2024/04/14 14:36:37;;;;;;;;;;;;;;;22.06;42.17;98165.69;5487949;26;19960;-59
2024/04/14 14:39:27;;;;;;;;;;;;;;;22.07;42.52;98164.50;5511444;25;19935;-61
2024/04/14 14:42:17;;;;;;;;;;;;;;;22.11;41.76;98167.34;5493076;26;19938;-60
2024/04/14 14:45:08;;;;;;;;;;;;;;;22.06;41.61;98162.13;5485415;26;19927;-60
2024/04/14 14:47:58;;;;;;;;;;;;;;;22.15;42.01;98168.94;5506542;25;20365;-59
2024/04/14 14:50:48;;;;;;;;;;;;;;;22.21;41.51;98155.56;5520564;25;19927;-59
2024/04/14 14:53:35;;;;;;;;;;;;;;;22.08;41.31;98157.78;5494121;26;19996;-59
2024/04/14 14:56:25;;;;;;;;;;;;;;;22.14;40.55;98155.50;5505178;26;19993;-60
2024/04/14 14:59:16;;;;;;;;;;;;;;;22.18;41.63;98156.34;5492076;25;19931;-60
2024/04/14 15:02:05;;;;;;;;;;;;;;;22.23;41.34;98154.00;5498683;26;19956;-59
2024/04/14 15:04:55;;;;;;;;;;;;;;;22.25;40.88;98150.84;5488192;25;19939;-60
2024/04/14 15:07:49;;;;;;;;;;;;;;;22.23;41.58;98144.91;5516810;26;20268;-60
2024/04/14 15:10:41;;;;;;;;;;;;;;;22.11;41.51;98150.75;5505480;26;20342;-59
2024/04/14 15:13:32;;;;;;;;;;;;;;;22.10;42.06;98154.63;5504032;26;19928;-59
2024/04/14 15:16:21;;;;;;;;;;;;;;;22.16;40.84;98155.94;5517025;26;19935;-60
2024/04/14 15:19:10;;;;;;;;;;;;;;;22.01;41.93;98152.19;5517393;26;19972;-60
2024/04/14 15:22:00;;;;;;;;;;;;;;;22.05;42.28;98152.22;5505485;25;19935;-59
2024/04/14 15:24:50;;;;;;;;;;;;;;;22.08;41.50;98143.16;5518423;26;19959;-60
2024/04/14 15:27:41;;;;;;;;;;;;;;;22.08;42.52;98138.44;5494864;26;19928;-61
2024/04/14 15:30:28;;;;;;;;;;;;;;;22.07;42.10;98138.81;5513190;26;19939;-60
2024/04/14 15:33:18;;;;;;;;;;;;;;;21.92;41.94;98141.44;5517782;25;19927;-60
2024/04/14 15:36:08;;;;;;;;;;;;;;;21.99;42.29;98132.41;5505180;26;19977;-60
2024/04/14 15:39:00;;;;;;;;;;;;;;;22.05;42.52;98130.09;5478956;26;19927;-60
2024/04/14 15:41:51;;;;;;;;;;;;;;;22.02;42.61;98126.13;5503525;26;19928;-60
2024/04/14 15:44:38;;;;;;;;;;;;;;;21.99;42.28;98115.81;5509250;26;19931;-60
2024/04/14 15:47:29;;;;;;;;;;;;;;;21.93;41.84;98122.88;5497168;26;19935;-60
2024/04/14 15:50:17;;;;;;;;;;;;;;;21.86;42.15;98120.03;5503314;25;19936;-61
